sensor_id;sensor_type;location;lat;lon;timestamp;P1;durP1;ratioP1;P2;durP2;ratioP2
10550;SDS011;5324;50.684;3.862;2023-09-08T00:00:00;5.85;;;5.35;;
10550;SDS011;5324;50.684;3.862;2023-09-08T00:02:27;5.55;;;4.60;;
10550;SDS011;5324;50.684;3.862;2023-09-08T00:04:53;5.43;;;4.93;;
10550;SDS011;5324;50.684;3.862;2023-09-08T00:07:20;5.63;;;5.05;;
10550;SDS011;5324;50.684;3.862;2023-09-08T00:09:46;5.40;;;4.90;;
10550;SDS011;5324;50.684;3.862;2023-09-08T00:12:12;5.75;;;5.18;;
10550;SDS011;5324;50.684;3.862;2023-09-08T00:14:38;6.85;;;5.97;;
10550;SDS011;5324;50.684;3.862;2023-09-08T00:17:04;5.55;;;5.05;;
10550;SDS011;5324;50.684;3.862;2023-09-08T00:19:30;7.15;;;5.60;;
10550;SDS011;5324;50.684;3.862;2023-09-08T00:21:56;6.40;;;5.75;;
10550;SDS011;5324;50.684;3.862;2023-09-08T00:24:23;6.20;;;5.60;;
10550;SDS011;5324;50.684;3.862;2023-09-08T00:26:49;8.43;;;5.60;;
10550;SDS011;5324;50.684;3.862;2023-09-08T00:29:15;5.80;;;5.20;;
10550;SDS011;5324;50.684;3.862;2023-09-08T00:31:42;5.50;;;5.00;;
10550;SDS011;5324;50.684;3.862;2023-09-08T00:34:08;4.90;;;4.50;;
10550;SDS011;5324;50.684;3.862;2023-09-08T00:36:34;5.63;;;4.75;;
10550;SDS011;5324;50.684;3.862;2023-09-08T00:39:00;7.13;;;4.93;;
10550;SDS011;5324;50.684;3.862;2023-09-08T00:41:26;7.93;;;5.57;;
10550;SDS011;5324;50.684;3.862;2023-09-08T00:43:52;7.15;;;5.68;;
10550;SDS011;5324;50.684;3.862;2023-09-08T00:46:18;7.10;;;6.43;;
10550;SDS011;5324;50.684;3.862;2023-09-08T00:48:44;8.25;;;5.50;;
10550;SDS011;5324;50.684;3.862;2023-09-08T00:51:10;7.63;;;5.90;;
10550;SDS011;5324;50.684;3.862;2023-09-08T00:53:36;6.25;;;5.65;;
10550;SDS011;5324;50.684;3.862;2023-09-08T00:56:02;6.45;;;5.70;;
10550;SDS011;5324;50.684;3.862;2023-09-08T00:58:29;5.70;;;5.20;;
10550;SDS011;5324;50.684;3.862;2023-09-08T01:00:55;5.93;;;5.20;;
10550;SDS011;5324;50.684;3.862;2023-09-08T01:03:24;6.68;;;5.18;;
10550;SDS011;5324;50.684;3.862;2023-09-08T01:05:50;6.13;;;5.20;;
10550;SDS011;5324;50.684;3.862;2023-09-08T01:08:17;6.03;;;5.30;;
10550;SDS011;5324;50.684;3.862;2023-09-08T01:10:43;5.10;;;4.70;;
10550;SDS011;5324;50.684;3.862;2023-09-08T01:13:09;5.70;;;5.10;;
10550;SDS011;5324;50.684;3.862;2023-09-08T01:15:35;7.03;;;4.75;;
10550;SDS011;5324;50.684;3.862;2023-09-08T01:18:01;5.38;;;4.97;;
10550;SDS011;5324;50.684;3.862;2023-09-08T01:20:35;6.78;;;5.40;;
10550;SDS011;5324;50.684;3.862;2023-09-08T01:23:18;6.88;;;5.78;;
10550;SDS011;5324;50.684;3.862;2023-09-08T01:25:55;7.65;;;5.40;;
10550;SDS011;5324;50.684;3.862;2023-09-08T01:28:23;6.50;;;5.90;;
10550;SDS011;5324;50.684;3.862;2023-09-08T01:30:49;7.22;;;5.68;;
10550;SDS011;5324;50.684;3.862;2023-09-08T01:33:15;8.27;;;6.22;;
10550;SDS011;5324;50.684;3.862;2023-09-08T01:35:41;6.63;;;5.85;;
10550;SDS011;5324;50.684;3.862;2023-09-08T01:38:07;6.38;;;5.78;;
10550;SDS011;5324;50.684;3.862;2023-09-08T01:40:33;6.25;;;5.55;;
10550;SDS011;5324;50.684;3.862;2023-09-08T01:43:00;6.50;;;5.25;;
10550;SDS011;5324;50.684;3.862;2023-09-08T01:45:26;6.05;;;5.53;;
10550;SDS011;5324;50.684;3.862;2023-09-08T01:47:52;6.38;;;4.90;;
10550;SDS011;5324;50.684;3.862;2023-09-08T01:50:18;5.75;;;5.15;;
10550;SDS011;5324;50.684;3.862;2023-09-08T01:52:47;7.30;;;5.28;;
10550;SDS011;5324;50.684;3.862;2023-09-08T01:55:13;4.95;;;4.10;;
10550;SDS011;5324;50.684;3.862;2023-09-08T01:57:41;5.95;;;4.95;;
10550;SDS011;5324;50.684;3.862;2023-09-08T02:00:07;5.25;;;4.65;;
10550;SDS011;5324;50.684;3.862;2023-09-08T02:02:33;5.15;;;4.65;;
10550;SDS011;5324;50.684;3.862;2023-09-08T02:04:59;5.40;;;4.90;;
10550;SDS011;5324;50.684;3.862;2023-09-08T02:07:25;5.82;;;4.45;;
10550;SDS011;5324;50.684;3.862;2023-09-08T02:09:51;5.28;;;4.78;;
10550;SDS011;5324;50.684;3.862;2023-09-08T02:12:17;5.43;;;4.88;;
10550;SDS011;5324;50.684;3.862;2023-09-08T02:14:43;6.22;;;5.57;;
10550;SDS011;5324;50.684;3.862;2023-09-08T02:17:09;5.47;;;4.50;;
10550;SDS011;5324;50.684;3.862;2023-09-08T02:19:35;4.50;;;4.10;;
10550;SDS011;5324;50.684;3.862;2023-09-08T02:22:01;5.53;;;4.18;;
10550;SDS011;5324;50.684;3.862;2023-09-08T02:24:28;7.45;;;5.35;;
10550;SDS011;5324;50.684;3.862;2023-09-08T02:26:54;7.13;;;4.82;;
10550;SDS011;5324;50.684;3.862;2023-09-08T02:29:20;4.55;;;4.15;;
10550;SDS011;5324;50.684;3.862;2023-09-08T02:31:46;4.57;;;3.70;;
10550;SDS011;5324;50.684;3.862;2023-09-08T02:34:12;4.43;;;4.03;;
10550;SDS011;5324;50.684;3.862;2023-09-08T02:36:38;5.35;;;4.75;;
10550;SDS011;5324;50.684;3.862;2023-09-08T02:39:04;6.90;;;5.03;;
10550;SDS011;5324;50.684;3.862;2023-09-08T02:41:30;5.80;;;4.35;;
10550;SDS011;5324;50.684;3.862;2023-09-08T02:43:56;6.10;;;5.30;;
10550;SDS011;5324;50.684;3.862;2023-09-08T02:46:22;4.57;;;4.15;;
10550;SDS011;5324;50.684;3.862;2023-09-08T02:48:48;5.80;;;4.53;;
10550;SDS011;5324;50.684;3.862;2023-09-08T02:51:14;6.35;;;5.28;;
10550;SDS011;5324;50.684;3.862;2023-09-08T02:53:40;5.65;;;5.03;;
10550;SDS011;5324;50.684;3.862;2023-09-08T02:56:06;5.80;;;5.20;;
10550;SDS011;5324;50.684;3.862;2023-09-08T02:58:34;5.53;;;5.03;;
10550;SDS011;5324;50.684;3.862;2023-09-08T03:01:11;7.80;;;5.15;;
10550;SDS011;5324;50.684;3.862;2023-09-08T03:03:38;4.82;;;4.43;;
10550;SDS011;5324;50.684;3.862;2023-09-08T03:06:04;5.18;;;4.60;;
10550;SDS011;5324;50.684;3.862;2023-09-08T03:08:30;5.82;;;5.07;;
10550;SDS011;5324;50.684;3.862;2023-09-08T03:10:56;5.50;;;4.90;;
10550;SDS011;5324;50.684;3.862;2023-09-08T03:13:22;5.22;;;4.72;;
10550;SDS011;5324;50.684;3.862;2023-09-08T03:15:49;5.05;;;4.65;;
10550;SDS011;5324;50.684;3.862;2023-09-08T03:18:15;6.05;;;5.47;;
10550;SDS011;5324;50.684;3.862;2023-09-08T03:20:41;6.43;;;5.68;;
10550;SDS011;5324;50.684;3.862;2023-09-08T03:23:07;5.88;;;5.07;;
10550;SDS011;5324;50.684;3.862;2023-09-08T03:25:33;6.50;;;5.90;;
10550;SDS011;5324;50.684;3.862;2023-09-08T03:27:59;7.57;;;6.50;;
10550;SDS011;5324;50.684;3.862;2023-09-08T03:30:25;9.52;;;6.30;;
10550;SDS011;5324;50.684;3.862;2023-09-08T03:32:51;8.57;;;6.00;;
10550;SDS011;5324;50.684;3.862;2023-09-08T03:35:17;7.20;;;6.50;;
10550;SDS011;5324;50.684;3.862;2023-09-08T03:37:43;12.75;;;7.78;;
10550;SDS011;5324;50.684;3.862;2023-09-08T03:40:09;8.15;;;6.88;;
10550;SDS011;5324;50.684;3.862;2023-09-08T03:42:35;15.13;;;7.47;;
10550;SDS011;5324;50.684;3.862;2023-09-08T03:45:01;8.32;;;6.82;;
10550;SDS011;5324;50.684;3.862;2023-09-08T03:47:27;9.73;;;6.82;;
10550;SDS011;5324;50.684;3.862;2023-09-08T03:49:54;8.23;;;6.50;;
10550;SDS011;5324;50.684;3.862;2023-09-08T03:52:20;8.73;;;6.72;;
10550;SDS011;5324;50.684;3.862;2023-09-08T03:54:46;7.07;;;6.25;;
10550;SDS011;5324;50.684;3.862;2023-09-08T03:57:12;7.60;;;6.82;;
10550;SDS011;5324;50.684;3.862;2023-09-08T03:59:38;8.05;;;6.82;;
10550;SDS011;5324;50.684;3.862;2023-09-08T04:02:04;8.77;;;6.75;;
10550;SDS011;5324;50.684;3.862;2023-09-08T04:04:30;8.43;;;6.70;;
10550;SDS011;5324;50.684;3.862;2023-09-08T04:06:56;10.55;;;7.28;;
10550;SDS011;5324;50.684;3.862;2023-09-08T04:09:22;7.18;;;6.47;;
10550;SDS011;5324;50.684;3.862;2023-09-08T04:11:49;10.95;;;6.28;;
10550;SDS011;5324;50.684;3.862;2023-09-08T04:14:16;6.72;;;5.80;;
10550;SDS011;5324;50.684;3.862;2023-09-08T04:16:42;7.00;;;5.88;;
10550;SDS011;5324;50.684;3.862;2023-09-08T04:19:08;12.20;;;5.75;;
10550;SDS011;5324;50.684;3.862;2023-09-08T04:21:34;7.43;;;5.90;;
10550;SDS011;5324;50.684;3.862;2023-09-08T04:24:00;7.63;;;5.57;;
10550;SDS011;5324;50.684;3.862;2023-09-08T04:26:26;7.15;;;5.68;;
10550;SDS011;5324;50.684;3.862;2023-09-08T04:28:52;8.02;;;4.40;;
10550;SDS011;5324;50.684;3.862;2023-09-08T04:31:18;8.25;;;4.60;;
10550;SDS011;5324;50.684;3.862;2023-09-08T04:33:46;5.75;;;3.83;;
10550;SDS011;5324;50.684;3.862;2023-09-08T04:36:12;7.28;;;4.28;;
10550;SDS011;5324;50.684;3.862;2023-09-08T04:38:40;5.10;;;4.43;;
10550;SDS011;5324;50.684;3.862;2023-09-08T04:41:06;7.18;;;5.20;;
10550;SDS011;5324;50.684;3.862;2023-09-08T04:43:32;6.85;;;4.97;;
10550;SDS011;5324;50.684;3.862;2023-09-08T04:45:58;4.45;;;4.05;;
10550;SDS011;5324;50.684;3.862;2023-09-08T04:48:24;7.85;;;4.63;;
10550;SDS011;5324;50.684;3.862;2023-09-08T04:50:51;5.43;;;4.80;;
10550;SDS011;5324;50.684;3.862;2023-09-08T04:53:17;5.15;;;4.22;;
10550;SDS011;5324;50.684;3.862;2023-09-08T04:55:43;5.85;;;4.97;;
10550;SDS011;5324;50.684;3.862;2023-09-08T04:58:09;5.97;;;4.60;;
10550;SDS011;5324;50.684;3.862;2023-09-08T05:00:37;8.02;;;5.30;;
10550;SDS011;5324;50.684;3.862;2023-09-08T05:03:04;11.35;;;5.80;;
10550;SDS011;5324;50.684;3.862;2023-09-08T05:05:31;6.45;;;5.53;;
10550;SDS011;5324;50.684;3.862;2023-09-08T05:07:57;6.78;;;5.30;;
10550;SDS011;5324;50.684;3.862;2023-09-08T05:10:23;4.95;;;4.45;;
10550;SDS011;5324;50.684;3.862;2023-09-08T05:12:50;5.50;;;4.80;;
10550;SDS011;5324;50.684;3.862;2023-09-08T05:15:17;8.35;;;4.53;;
10550;SDS011;5324;50.684;3.862;2023-09-08T05:17:45;4.85;;;4.45;;
10550;SDS011;5324;50.684;3.862;2023-09-08T05:20:12;4.60;;;4.20;;
10550;SDS011;5324;50.684;3.862;2023-09-08T05:22:38;5.47;;;4.65;;
10550;SDS011;5324;50.684;3.862;2023-09-08T05:25:04;6.50;;;5.45;;
10550;SDS011;5324;50.684;3.862;2023-09-08T05:27:30;7.75;;;5.15;;
10550;SDS011;5324;50.684;3.862;2023-09-08T05:29:57;7.57;;;6.18;;
10550;SDS011;5324;50.684;3.862;2023-09-08T05:32:23;6.40;;;5.20;;
10550;SDS011;5324;50.684;3.862;2023-09-08T05:34:50;6.35;;;5.00;;
10550;SDS011;5324;50.684;3.862;2023-09-08T05:37:16;5.60;;;4.93;;
10550;SDS011;5324;50.684;3.862;2023-09-08T05:39:42;6.03;;;5.25;;
10550;SDS011;5324;50.684;3.862;2023-09-08T05:42:08;7.15;;;5.57;;
10550;SDS011;5324;50.684;3.862;2023-09-08T05:44:34;6.28;;;5.68;;
10550;SDS011;5324;50.684;3.862;2023-09-08T05:47:00;10.98;;;6.47;;
10550;SDS011;5324;50.684;3.862;2023-09-08T05:49:27;6.78;;;5.70;;
10550;SDS011;5324;50.684;3.862;2023-09-08T05:51:53;6.38;;;5.78;;
10550;SDS011;5324;50.684;3.862;2023-09-08T05:54:19;5.13;;;4.63;;
10550;SDS011;5324;50.684;3.862;2023-09-08T05:56:45;6.00;;;4.45;;
10550;SDS011;5324;50.684;3.862;2023-09-08T05:59:11;5.50;;;4.82;;
10550;SDS011;5324;50.684;3.862;2023-09-08T06:01:37;3.80;;;3.50;;
10550;SDS011;5324;50.684;3.862;2023-09-08T06:04:05;3.80;;;3.50;;
10550;SDS011;5324;50.684;3.862;2023-09-08T06:06:31;4.78;;;4.38;;
10550;SDS011;5324;50.684;3.862;2023-09-08T06:08:57;7.38;;;5.07;;
10550;SDS011;5324;50.684;3.862;2023-09-08T06:11:23;6.85;;;5.70;;
10550;SDS011;5324;50.684;3.862;2023-09-08T06:13:49;7.53;;;5.38;;
10550;SDS011;5324;50.684;3.862;2023-09-08T06:16:15;6.03;;;5.35;;
10550;SDS011;5324;50.684;3.862;2023-09-08T06:18:41;7.45;;;6.35;;
10550;SDS011;5324;50.684;3.862;2023-09-08T06:21:09;6.40;;;5.43;;
10550;SDS011;5324;50.684;3.862;2023-09-08T06:23:35;8.23;;;6.25;;
10550;SDS011;5324;50.684;3.862;2023-09-08T06:26:01;6.90;;;3.92;;
10550;SDS011;5324;50.684;3.862;2023-09-08T06:28:27;9.15;;;3.70;;
10550;SDS011;5324;50.684;3.862;2023-09-08T06:30:53;7.63;;;4.50;;
10550;SDS011;5324;50.684;3.862;2023-09-08T06:33:19;5.63;;;4.28;;
10550;SDS011;5324;50.684;3.862;2023-09-08T06:35:46;5.70;;;4.50;;
10550;SDS011;5324;50.684;3.862;2023-09-08T06:38:12;8.27;;;4.60;;
10550;SDS011;5324;50.684;3.862;2023-09-08T06:40:39;7.10;;;5.15;;
10550;SDS011;5324;50.684;3.862;2023-09-08T06:43:05;6.75;;;5.53;;
10550;SDS011;5324;50.684;3.862;2023-09-08T06:45:31;11.13;;;6.30;;
10550;SDS011;5324;50.684;3.862;2023-09-08T06:47:57;9.10;;;5.65;;
10550;SDS011;5324;50.684;3.862;2023-09-08T06:50:25;8.23;;;5.90;;
10550;SDS011;5324;50.684;3.862;2023-09-08T06:52:51;6.13;;;5.57;;
10550;SDS011;5324;50.684;3.862;2023-09-08T06:55:17;9.45;;;5.88;;
10550;SDS011;5324;50.684;3.862;2023-09-08T06:57:44;7.40;;;5.78;;
10550;SDS011;5324;50.684;3.862;2023-09-08T07:00:11;6.78;;;5.50;;
10550;SDS011;5324;50.684;3.862;2023-09-08T07:02:37;9.30;;;6.32;;
10550;SDS011;5324;50.684;3.862;2023-09-08T07:05:03;9.85;;;6.13;;
10550;SDS011;5324;50.684;3.862;2023-09-08T07:07:33;9.57;;;5.90;;
10550;SDS011;5324;50.684;3.862;2023-09-08T07:09:59;8.98;;;6.00;;
10550;SDS011;5324;50.684;3.862;2023-09-08T07:12:25;9.80;;;6.88;;
10550;SDS011;5324;50.684;3.862;2023-09-08T07:14:51;9.75;;;6.70;;
10550;SDS011;5324;50.684;3.862;2023-09-08T07:17:17;11.35;;;6.60;;
10550;SDS011;5324;50.684;3.862;2023-09-08T07:19:43;8.40;;;6.20;;
10550;SDS011;5324;50.684;3.862;2023-09-08T07:22:09;12.10;;;7.38;;
10550;SDS011;5324;50.684;3.862;2023-09-08T07:24:35;8.38;;;7.55;;
10550;SDS011;5324;50.684;3.862;2023-09-08T07:27:01;15.30;;;7.90;;
10550;SDS011;5324;50.684;3.862;2023-09-08T07:29:27;8.70;;;7.80;;
10550;SDS011;5324;50.684;3.862;2023-09-08T07:31:54;11.05;;;8.18;;
10550;SDS011;5324;50.684;3.862;2023-09-08T07:34:20;8.93;;;7.72;;
10550;SDS011;5324;50.684;3.862;2023-09-08T07:36:46;8.25;;;7.28;;
10550;SDS011;5324;50.684;3.862;2023-09-08T07:39:12;8.32;;;7.40;;
10550;SDS011;5324;50.684;3.862;2023-09-08T07:41:38;9.63;;;7.18;;
10550;SDS011;5324;50.684;3.862;2023-09-08T07:44:05;7.72;;;6.90;;
10550;SDS011;5324;50.684;3.862;2023-09-08T07:46:33;7.88;;;6.63;;
10550;SDS011;5324;50.684;3.862;2023-09-08T07:48:59;6.68;;;6.07;;
10550;SDS011;5324;50.684;3.862;2023-09-08T07:51:28;9.10;;;6.50;;
10550;SDS011;5324;50.684;3.862;2023-09-08T07:53:54;7.28;;;6.55;;
10550;SDS011;5324;50.684;3.862;2023-09-08T07:56:21;8.00;;;6.22;;
10550;SDS011;5324;50.684;3.862;2023-09-08T07:58:47;10.38;;;6.55;;
10550;SDS011;5324;50.684;3.862;2023-09-08T08:01:13;7.75;;;6.93;;
10550;SDS011;5324;50.684;3.862;2023-09-08T08:03:40;9.73;;;6.72;;
10550;SDS011;5324;50.684;3.862;2023-09-08T08:06:06;7.70;;;6.28;;
10550;SDS011;5324;50.684;3.862;2023-09-08T08:08:33;8.65;;;6.22;;
10550;SDS011;5324;50.684;3.862;2023-09-08T08:11:07;7.03;;;6.43;;
10550;SDS011;5324;50.684;3.862;2023-09-08T08:13:33;7.68;;;6.95;;
10550;SDS011;5324;50.684;3.862;2023-09-08T08:15:59;8.93;;;6.40;;
10550;SDS011;5324;50.684;3.862;2023-09-08T08:18:26;6.97;;;5.93;;
10550;SDS011;5324;50.684;3.862;2023-09-08T08:20:52;6.88;;;6.22;;
10550;SDS011;5324;50.684;3.862;2023-09-08T08:23:18;7.10;;;6.45;;
10550;SDS011;5324;50.684;3.862;2023-09-08T08:25:44;7.68;;;6.70;;
10550;SDS011;5324;50.684;3.862;2023-09-08T08:28:11;7.38;;;6.65;;
10550;SDS011;5324;50.684;3.862;2023-09-08T08:30:37;7.90;;;7.03;;
10550;SDS011;5324;50.684;3.862;2023-09-08T08:33:03;8.85;;;6.60;;
10550;SDS011;5324;50.684;3.862;2023-09-08T08:35:29;7.72;;;6.80;;
10550;SDS011;5324;50.684;3.862;2023-09-08T08:37:57;7.75;;;7.05;;
10550;SDS011;5324;50.684;3.862;2023-09-08T08:40:24;8.82;;;7.25;;
10550;SDS011;5324;50.684;3.862;2023-09-08T08:42:54;7.72;;;6.93;;
10550;SDS011;5324;50.684;3.862;2023-09-08T08:45:20;7.55;;;6.72;;
10550;SDS011;5324;50.684;3.862;2023-09-08T08:47:48;8.25;;;7.40;;
10550;SDS011;5324;50.684;3.862;2023-09-08T08:50:15;10.20;;;7.43;;
10550;SDS011;5324;50.684;3.862;2023-09-08T08:52:42;7.80;;;6.93;;
10550;SDS011;5324;50.684;3.862;2023-09-08T08:55:08;8.35;;;7.63;;
10550;SDS011;5324;50.684;3.862;2023-09-08T08:57:36;8.10;;;7.32;;
10550;SDS011;5324;50.684;3.862;2023-09-08T09:00:03;8.10;;;7.28;;
10550;SDS011;5324;50.684;3.862;2023-09-08T09:02:33;10.55;;;7.85;;
10550;SDS011;5324;50.684;3.862;2023-09-08T09:04:59;8.30;;;7.43;;
10550;SDS011;5324;50.684;3.862;2023-09-08T09:07:26;9.98;;;7.85;;
10550;SDS011;5324;50.684;3.862;2023-09-08T09:09:52;8.50;;;7.70;;
10550;SDS011;5324;50.684;3.862;2023-09-08T09:12:19;7.70;;;6.28;;
10550;SDS011;5324;50.684;3.862;2023-09-08T09:14:46;11.57;;;10.48;;
10550;SDS011;5324;50.684;3.862;2023-09-08T09:17:13;9.80;;;8.68;;
10550;SDS011;5324;50.684;3.862;2023-09-08T09:19:39;10.85;;;9.75;;
10550;SDS011;5324;50.684;3.862;2023-09-08T09:22:08;7.30;;;6.63;;
10550;SDS011;5324;50.684;3.862;2023-09-08T09:24:40;13.15;;;11.82;;
10550;SDS011;5324;50.684;3.862;2023-09-08T09:27:08;6.90;;;6.20;;
10550;SDS011;5324;50.684;3.862;2023-09-08T09:29:45;6.97;;;6.15;;
10550;SDS011;5324;50.684;3.862;2023-09-08T09:32:11;7.55;;;6.72;;
10550;SDS011;5324;50.684;3.862;2023-09-08T09:34:48;7.85;;;6.95;;
10550;SDS011;5324;50.684;3.862;2023-09-08T09:37:14;9.73;;;8.73;;
10550;SDS011;5324;50.684;3.862;2023-09-08T09:39:42;7.43;;;6.70;;
10550;SDS011;5324;50.684;3.862;2023-09-08T09:42:08;7.18;;;6.47;;
10550;SDS011;5324;50.684;3.862;2023-09-08T09:44:34;9.48;;;7.40;;
10550;SDS011;5324;50.684;3.862;2023-09-08T09:47:00;6.93;;;6.22;;
10550;SDS011;5324;50.684;3.862;2023-09-08T09:49:26;8.00;;;7.25;;
10550;SDS011;5324;50.684;3.862;2023-09-08T09:51:56;7.70;;;6.45;;
10550;SDS011;5324;50.684;3.862;2023-09-08T09:54:24;7.15;;;6.43;;
10550;SDS011;5324;50.684;3.862;2023-09-08T09:56:50;7.82;;;6.25;;
10550;SDS011;5324;50.684;3.862;2023-09-08T09:59:17;7.38;;;6.32;;
10550;SDS011;5324;50.684;3.862;2023-09-08T10:01:43;9.13;;;8.05;;
10550;SDS011;5324;50.684;3.862;2023-09-08T10:04:09;8.98;;;7.40;;
10550;SDS011;5324;50.684;3.862;2023-09-08T10:06:36;6.60;;;6.00;;
10550;SDS011;5324;50.684;3.862;2023-09-08T10:09:05;7.55;;;6.80;;
10550;SDS011;5324;50.684;3.862;2023-09-08T10:11:41;6.70;;;6.00;;
10550;SDS011;5324;50.684;3.862;2023-09-08T10:14:07;7.75;;;5.78;;
10550;SDS011;5324;50.684;3.862;2023-09-08T10:16:38;6.90;;;5.97;;
10550;SDS011;5324;50.684;3.862;2023-09-08T10:19:07;6.20;;;5.68;;
10550;SDS011;5324;50.684;3.862;2023-09-08T10:21:36;6.10;;;5.53;;
10550;SDS011;5324;50.684;3.862;2023-09-08T10:24:06;6.90;;;6.05;;
10550;SDS011;5324;50.684;3.862;2023-09-08T10:26:37;6.97;;;6.22;;
10550;SDS011;5324;50.684;3.862;2023-09-08T10:29:06;6.15;;;5.65;;
10550;SDS011;5324;50.684;3.862;2023-09-08T10:31:32;7.57;;;5.60;;
10550;SDS011;5324;50.684;3.862;2023-09-08T10:34:00;5.95;;;5.32;;
10550;SDS011;5324;50.684;3.862;2023-09-08T10:36:27;6.47;;;5.88;;
10550;SDS011;5324;50.684;3.862;2023-09-08T10:38:53;6.63;;;6.00;;
10550;SDS011;5324;50.684;3.862;2023-09-08T10:44:07;6.90;;;6.25;;
10550;SDS011;5324;50.684;3.862;2023-09-08T10:46:33;7.40;;;6.32;;
10550;SDS011;5324;50.684;3.862;2023-09-08T10:49:06;5.93;;;5.32;;
10550;SDS011;5324;50.684;3.862;2023-09-08T10:51:33;6.40;;;5.50;;
10550;SDS011;5324;50.684;3.862;2023-09-08T10:54:00;6.07;;;5.45;;
10550;SDS011;5324;50.684;3.862;2023-09-08T10:59:10;6.25;;;5.65;;
10550;SDS011;5324;50.684;3.862;2023-09-08T11:01:36;6.38;;;5.78;;
10550;SDS011;5324;50.684;3.862;2023-09-08T11:04:03;14.55;;;5.75;;
10550;SDS011;5324;50.684;3.862;2023-09-08T11:06:33;8.50;;;5.30;;
10550;SDS011;5324;50.684;3.862;2023-09-08T11:09:07;8.10;;;5.60;;
10550;SDS011;5324;50.684;3.862;2023-09-08T11:11:33;9.25;;;5.80;;
10550;SDS011;5324;50.684;3.862;2023-09-08T11:13:59;7.30;;;5.00;;
10550;SDS011;5324;50.684;3.862;2023-09-08T11:16:25;7.78;;;5.50;;
10550;SDS011;5324;50.684;3.862;2023-09-08T11:18:56;6.20;;;5.50;;
10550;SDS011;5324;50.684;3.862;2023-09-08T11:21:22;6.05;;;5.45;;
10550;SDS011;5324;50.684;3.862;2023-09-08T11:23:48;7.07;;;5.03;;
10550;SDS011;5324;50.684;3.862;2023-09-08T11:26:14;7.20;;;5.65;;
10550;SDS011;5324;50.684;3.862;2023-09-08T11:28:41;9.95;;;5.47;;
10550;SDS011;5324;50.684;3.862;2023-09-08T11:31:08;5.38;;;4.88;;
10550;SDS011;5324;50.684;3.862;2023-09-08T11:33:34;6.15;;;5.25;;
10550;SDS011;5324;50.684;3.862;2023-09-08T11:36:10;5.88;;;5.38;;
10550;SDS011;5324;50.684;3.862;2023-09-08T11:38:38;5.53;;;5.03;;
10550;SDS011;5324;50.684;3.862;2023-09-08T11:41:06;7.40;;;5.55;;
10550;SDS011;5324;50.684;3.862;2023-09-08T11:43:32;5.88;;;5.38;;
10550;SDS011;5324;50.684;3.862;2023-09-08T11:45:59;7.32;;;5.43;;
10550;SDS011;5324;50.684;3.862;2023-09-08T11:48:25;7.32;;;4.75;;
10550;SDS011;5324;50.684;3.862;2023-09-08T11:50:55;8.13;;;5.43;;
10550;SDS011;5324;50.684;3.862;2023-09-08T11:53:21;7.72;;;5.43;;
10550;SDS011;5324;50.684;3.862;2023-09-08T11:55:48;5.38;;;4.88;;
10550;SDS011;5324;50.684;3.862;2023-09-08T11:58:15;6.38;;;5.47;;
10550;SDS011;5324;50.684;3.862;2023-09-08T12:00:41;6.35;;;5.20;;
10550;SDS011;5324;50.684;3.862;2023-09-08T12:03:14;10.32;;;5.38;;
10550;SDS011;5324;50.684;3.862;2023-09-08T12:05:41;6.45;;;5.22;;
10550;SDS011;5324;50.684;3.862;2023-09-08T12:08:07;6.03;;;5.10;;
10550;SDS011;5324;50.684;3.862;2023-09-08T12:10:40;6.80;;;5.13;;
10550;SDS011;5324;50.684;3.862;2023-09-08T12:13:07;5.88;;;4.50;;
10550;SDS011;5324;50.684;3.862;2023-09-08T12:18:00;7.22;;;4.93;;
10550;SDS011;5324;50.684;3.862;2023-09-08T12:20:26;5.35;;;4.72;;
10550;SDS011;5324;50.684;3.862;2023-09-08T12:22:53;5.03;;;4.63;;
10550;SDS011;5324;50.684;3.862;2023-09-08T12:25:19;5.90;;;4.90;;
10550;SDS011;5324;50.684;3.862;2023-09-08T12:27:45;5.60;;;4.88;;
10550;SDS011;5324;50.684;3.862;2023-09-08T12:30:18;6.88;;;4.97;;
10550;SDS011;5324;50.684;3.862;2023-09-08T12:32:45;5.47;;;4.97;;
10550;SDS011;5324;50.684;3.862;2023-09-08T12:35:12;5.20;;;4.60;;
10550;SDS011;5324;50.684;3.862;2023-09-08T12:37:39;6.60;;;4.60;;
10550;SDS011;5324;50.684;3.862;2023-09-08T12:40:05;7.07;;;5.20;;
10550;SDS011;5324;50.684;3.862;2023-09-08T12:42:32;6.32;;;5.20;;
10550;SDS011;5324;50.684;3.862;2023-09-08T12:44:58;6.28;;;5.07;;
10550;SDS011;5324;50.684;3.862;2023-09-08T12:47:26;5.55;;;5.05;;
10550;SDS011;5324;50.684;3.862;2023-09-08T12:49:52;5.40;;;4.68;;
10550;SDS011;5324;50.684;3.862;2023-09-08T12:52:20;6.50;;;5.07;;
10550;SDS011;5324;50.684;3.862;2023-09-08T12:54:46;5.75;;;5.10;;
10550;SDS011;5324;50.684;3.862;2023-09-08T12:57:12;6.22;;;5.00;;
10550;SDS011;5324;50.684;3.862;2023-09-08T12:59:38;6.20;;;5.07;;
10550;SDS011;5324;50.684;3.862;2023-09-08T13:02:04;6.22;;;5.22;;
10550;SDS011;5324;50.684;3.862;2023-09-08T13:04:30;6.18;;;4.72;;
10550;SDS011;5324;50.684;3.862;2023-09-08T13:06:56;9.02;;;5.13;;
10550;SDS011;5324;50.684;3.862;2023-09-08T13:09:23;9.30;;;5.20;;
10550;SDS011;5324;50.684;3.862;2023-09-08T13:11:49;7.03;;;5.28;;
10550;SDS011;5324;50.684;3.862;2023-09-08T13:14:16;7.45;;;5.18;;
10550;SDS011;5324;50.684;3.862;2023-09-08T13:16:42;6.15;;;5.07;;
10550;SDS011;5324;50.684;3.862;2023-09-08T13:19:08;6.90;;;4.93;;
10550;SDS011;5324;50.684;3.862;2023-09-08T13:21:34;6.57;;;4.80;;
10550;SDS011;5324;50.684;3.862;2023-09-08T13:24:03;6.03;;;5.18;;
10550;SDS011;5324;50.684;3.862;2023-09-08T13:26:29;7.40;;;4.72;;
10550;SDS011;5324;50.684;3.862;2023-09-08T13:28:55;5.75;;;4.78;;
10550;SDS011;5324;50.684;3.862;2023-09-08T13:31:21;6.70;;;4.90;;
10550;SDS011;5324;50.684;3.862;2023-09-08T13:33:48;7.22;;;4.72;;
10550;SDS011;5324;50.684;3.862;2023-09-08T13:36:14;6.45;;;4.85;;
10550;SDS011;5324;50.684;3.862;2023-09-08T13:38:42;5.57;;;4.68;;
10550;SDS011;5324;50.684;3.862;2023-09-08T13:41:17;8.10;;;5.13;;
10550;SDS011;5324;50.684;3.862;2023-09-08T13:43:46;9.00;;;5.10;;
10550;SDS011;5324;50.684;3.862;2023-09-08T13:46:53;8.55;;;4.88;;
10550;SDS011;5324;50.684;3.862;2023-09-08T13:49:20;5.55;;;4.82;;
10550;SDS011;5324;50.684;3.862;2023-09-08T13:51:46;7.25;;;4.80;;
10550;SDS011;5324;50.684;3.862;2023-09-08T13:54:12;8.77;;;4.63;;
10550;SDS011;5324;50.684;3.862;2023-09-08T13:56:39;7.57;;;5.00;;
10550;SDS011;5324;50.684;3.862;2023-09-08T13:59:05;6.47;;;4.32;;
10550;SDS011;5324;50.684;3.862;2023-09-08T14:01:34;5.95;;;4.57;;
10550;SDS011;5324;50.684;3.862;2023-09-08T14:04:01;7.47;;;4.95;;
10550;SDS011;5324;50.684;3.862;2023-09-08T14:06:27;10.00;;;5.45;;
10550;SDS011;5324;50.684;3.862;2023-09-08T14:08:54;7.53;;;5.45;;
10550;SDS011;5324;50.684;3.862;2023-09-08T14:11:21;8.00;;;5.35;;
10550;SDS011;5324;50.684;3.862;2023-09-08T14:13:47;8.23;;;4.72;;
10550;SDS011;5324;50.684;3.862;2023-09-08T14:16:13;7.90;;;5.15;;
10550;SDS011;5324;50.684;3.862;2023-09-08T14:18:39;6.15;;;5.00;;
10550;SDS011;5324;50.684;3.862;2023-09-08T14:21:06;5.55;;;5.03;;
10550;SDS011;5324;50.684;3.862;2023-09-08T14:23:32;5.78;;;4.50;;
10550;SDS011;5324;50.684;3.862;2023-09-08T14:26:05;4.93;;;4.43;;
10550;SDS011;5324;50.684;3.862;2023-09-08T14:28:32;6.47;;;4.95;;
10550;SDS011;5324;50.684;3.862;2023-09-08T14:30:58;9.68;;;5.32;;
10550;SDS011;5324;50.684;3.862;2023-09-08T14:33:25;5.97;;;4.93;;
10550;SDS011;5324;50.684;3.862;2023-09-08T14:35:51;11.88;;;5.40;;
10550;SDS011;5324;50.684;3.862;2023-09-08T14:38:18;5.90;;;5.25;;
10550;SDS011;5324;50.684;3.862;2023-09-08T14:40:44;5.05;;;4.22;;
10550;SDS011;5324;50.684;3.862;2023-09-08T14:43:11;7.97;;;5.22;;
10550;SDS011;5324;50.684;3.862;2023-09-08T14:45:37;5.90;;;4.75;;
10550;SDS011;5324;50.684;3.862;2023-09-08T14:48:03;6.22;;;4.93;;
10550;SDS011;5324;50.684;3.862;2023-09-08T14:50:29;6.40;;;5.25;;
10550;SDS011;5324;50.684;3.862;2023-09-08T14:52:55;6.72;;;5.10;;
10550;SDS011;5324;50.684;3.862;2023-09-08T14:55:21;7.53;;;4.70;;
10550;SDS011;5324;50.684;3.862;2023-09-08T14:57:47;7.30;;;5.05;;
10550;SDS011;5324;50.684;3.862;2023-09-08T15:00:13;5.53;;;5.03;;
10550;SDS011;5324;50.684;3.862;2023-09-08T15:02:39;6.47;;;5.05;;
10550;SDS011;5324;50.684;3.862;2023-09-08T15:05:06;12.00;;;5.22;;